createdAt,value
2022-08-16T00:01:29.024Z,97496.09
2022-08-16T00:03:38.696Z,97492.47
2022-08-16T00:05:48.479Z,97488.84
2022-08-16T00:07:56.513Z,97494.13
2022-08-16T00:10:00.914Z,97498.56
2022-08-16T00:12:05.138Z,97498.75
2022-08-16T00:14:12.387Z,97503.41
2022-08-16T00:17:01.376Z,97503.56
2022-08-16T00:18:39.901Z,97501.09
2022-08-16T00:20:44.792Z,97502.28
2022-08-16T00:22:48.295Z,97503.75
2022-08-16T00:24:55.064Z,97497.47
2022-08-16T00:26:58.631Z,97497.81
2022-08-16T00:29:01.888Z,97508.38
2022-08-16T00:31:05.035Z,97507.75
2022-08-16T00:33:08.402Z,97508.06
2022-08-16T00:35:16.037Z,97503.13
2022-08-16T00:37:20.828Z,97498.00
2022-08-16T00:39:24.346Z,97501.81
2022-08-16T00:41:29.665Z,97512.22
2022-08-16T00:43:42.881Z,97505.13
2022-08-16T00:45:58.251Z,97506.13
2022-08-16T00:48:04.404Z,97508.13
2022-08-16T00:50:36.499Z,97512.06
2022-08-16T00:52:50.492Z,97502.69
2022-08-16T00:54:54.547Z,97509.75
2022-08-16T00:57:02.343Z,97513.59
2022-08-16T00:59:06.761Z,97516.41
2022-08-16T01:01:10.404Z,97512.59
2022-08-16T01:03:15.410Z,97509.16
2022-08-16T01:05:20.052Z,97509.47
2022-08-16T01:07:29.556Z,97515.09
2022-08-16T01:09:52.666Z,97516.41
2022-08-16T01:11:57.596Z,97517.22
2022-08-16T01:14:05.396Z,97518.41
2022-08-16T01:16:11.048Z,97527.31
2022-08-16T01:18:39.097Z,97524.34
2022-08-16T01:20:45.866Z,97523.84
2022-08-16T01:23:02.444Z,97519.56
2022-08-16T01:25:10.370Z,97515.91
2022-08-16T01:27:15.956Z,97516.94
2022-08-16T01:29:56.820Z,97513.78
2022-08-16T01:31:47.973Z,97509.84
2022-08-16T01:33:55.300Z,97516.25
2022-08-16T01:36:12.155Z,97524.34
2022-08-16T01:38:21.104Z,97520.91
2022-08-16T01:40:30.681Z,97521.72
2022-08-16T01:42:34.609Z,97521.06
2022-08-16T01:44:39.016Z,97519.06
2022-08-16T01:46:46.052Z,97520.91
2022-08-16T01:48:56.088Z,97520.91
2022-08-16T01:51:16.715Z,97518.41
2022-08-16T01:53:21.151Z,97522.88
2022-08-16T01:55:41.462Z,97518.41
2022-08-16T01:57:53.144Z,97510.81
2022-08-16T02:00:00.330Z,97515.78
2022-08-16T02:02:03.956Z,97515.09
2022-08-16T02:04:49.449Z,97514.41
2022-08-16T02:06:52.696Z,97511.94
2022-08-16T02:08:56.442Z,97509.63
2022-08-16T02:11:01.113Z,97511.78
2022-08-16T02:13:07.355Z,97507.50
2022-08-16T02:15:11.622Z,97511.09
2022-08-16T02:17:15.051Z,97500.88
2022-08-16T02:19:19.904Z,97507.81
2022-08-16T02:21:31.754Z,97506.16
2022-08-16T02:23:37.772Z,97512.44
2022-08-16T02:25:51.106Z,97509.28
2022-08-16T02:27:58.912Z,97515.91
2022-08-16T02:30:05.139Z,97512.78
2022-08-16T02:32:51.100Z,97514.41
2022-08-16T02:34:40.402Z,97505.03
2022-08-16T02:36:49.545Z,97510.47
2022-08-16T02:38:56.352Z,97506.16
2022-08-16T02:41:02.177Z,97512.09
2022-08-16T02:43:11.647Z,97506.00
2022-08-16T02:45:15.237Z,97506.16
2022-08-16T02:47:25.024Z,97503.69
2022-08-16T02:49:58.305Z,97505.50
2022-08-16T02:51:52.974Z,97505.50
2022-08-16T02:53:56.499Z,97501.38
2022-08-16T02:56:00.784Z,97492.81
2022-08-16T02:58:05.383Z,97498.41
2022-08-16T03:00:32.162Z,97502.19
2022-08-16T03:02:37.078Z,97496.75
2022-08-16T03:04:52.491Z,97488.03
2022-08-16T03:06:57.837Z,97491.63
2022-08-16T03:09:17.086Z,97496.09
2022-08-16T03:11:25.064Z,97494.59
2022-08-16T03:13:40.399Z,97497.22
2022-08-16T03:15:49.700Z,97493.94
2022-08-16T03:17:54.357Z,97494.09
2022-08-16T03:20:02.715Z,97489.97
2022-08-16T03:22:11.608Z,97490.78
2022-08-16T03:24:28.639Z,97491.63
2022-08-16T03:26:33.813Z,97493.25
2022-08-16T03:28:37.883Z,97490.94
2022-08-16T03:30:42.369Z,97490.78
2022-08-16T03:32:51.489Z,97488.16
2022-08-16T03:34:56.407Z,97487.34
2022-08-16T03:37:00.185Z,97484.03
2022-08-16T03:39:03.588Z,97490.94
2022-08-16T03:41:17.040Z,97491.94
2022-08-16T03:43:51.224Z,97486.69
2022-08-16T03:45:57.309Z,97484.19
2022-08-16T03:48:07.165Z,97479.09
2022-08-16T03:50:26.246Z,97487.31
2022-08-16T03:52:31.914Z,97490.13
2022-08-16T03:54:36.735Z,97492.91
2022-08-16T03:56:58.099Z,97484.19
2022-08-16T03:59:05.412Z,97487.00
2022-08-16T04:01:18.140Z,97496.84
2022-08-16T04:03:23.474Z,97482.38
2022-08-16T04:05:27.667Z,97473.78
2022-08-16T04:07:33.995Z,97476.06
2022-08-16T04:09:38.484Z,97478.22
2022-08-16T04:11:43.911Z,97480.00
2022-08-16T04:14:00.624Z,97474.09
2022-08-16T04:16:26.303Z,97483.97
2022-08-16T04:18:36.823Z,97484.94
2022-08-16T04:20:40.287Z,97486.59
2022-08-16T04:22:44.304Z,97489.75
2022-08-16T04:24:55.260Z,97492.38
2022-08-16T04:27:02.505Z,97494.19
2022-08-16T04:29:16.432Z,97501.09
2022-08-16T04:31:24.017Z,97494.84
2022-08-16T04:33:27.660Z,97498.78
2022-08-16T04:35:35.919Z,97508.66
2022-08-16T04:37:43.139Z,97506.34
2022-08-16T04:39:55.311Z,97515.94
2022-08-16T04:42:00.706Z,97514.09
2022-08-16T04:44:33.109Z,97514.25
2022-08-16T04:47:02.676Z,97499.09
2022-08-16T04:49:01.470Z,97510.34
2022-08-16T04:51:12.107Z,97510.16
2022-08-16T04:53:26.072Z,97523.84
2022-08-16T04:55:31.858Z,97523.53
2022-08-16T04:57:41.931Z,97533.91
2022-08-16T04:59:46.126Z,97531.78
2022-08-16T05:01:58.937Z,97524.41
2022-08-16T05:04:02.912Z,97525.72
2022-08-16T05:06:14.069Z,97525.53
2022-08-16T05:08:29.382Z,97535.78
2022-08-16T05:10:45.492Z,97534.97
2022-08-16T05:12:48.764Z,97534.50
2022-08-16T05:15:02.392Z,97540.41
2022-08-16T05:17:08.436Z,97541.44
2022-08-16T05:19:16.334Z,97550.53
2022-08-16T05:21:40.848Z,97548.53
2022-08-16T05:23:51.685Z,97558.13
2022-08-16T05:26:00.717Z,97555.69
2022-08-16T05:28:04.357Z,97558.19
2022-08-16T05:30:34.730Z,97561.31
2022-08-16T05:32:34.169Z,97560.97
2022-08-16T05:34:47.326Z,97563.91
2022-08-16T05:36:57.295Z,97575.44
2022-08-16T05:39:09.596Z,97567.41
2022-08-16T05:41:14.546Z,97571.28
2022-08-16T05:43:20.875Z,97568.84
2022-08-16T05:45:24.045Z,97575.06
2022-08-16T05:47:31.457Z,97573.38
2022-08-16T05:49:38.477Z,97569.59
2022-08-16T05:51:45.971Z,97567.19
2022-08-16T05:53:54.528Z,97565.03
2022-08-16T05:55:58.404Z,97558.28
2022-08-16T05:58:01.530Z,97558.63
2022-08-16T06:00:09.342Z,97561.91
2022-08-16T06:02:15.840Z,97558.44
2022-08-16T06:04:35.318Z,97568.69
2022-08-16T06:06:40.899Z,97563.25
2022-08-16T06:08:46.787Z,97564.19
2022-08-16T06:11:10.394Z,97569.81
2022-08-16T06:13:15.582Z,97564.81
2022-08-16T06:15:22.180Z,97571.06
2022-08-16T06:17:25.730Z,97571.38
2022-08-16T06:19:46.744Z,97573.31
2022-08-16T06:21:54.895Z,97576.28
2022-08-16T06:24:01.189Z,97581.03
2022-08-16T06:26:08.686Z,97584.16
2022-08-16T06:28:34.898Z,97583.44
2022-08-16T06:30:44.022Z,97574.63
2022-08-16T06:32:52.025Z,97574.53
2022-08-16T06:35:02.340Z,97570.38
2022-08-16T06:37:09.174Z,97561.72
2022-08-16T06:39:14.249Z,97572.41
2022-08-16T06:41:39.849Z,97569.97
2022-08-16T06:43:54.496Z,97577.03
2022-08-16T06:46:03.610Z,97576.97
2022-08-16T06:48:08.297Z,97573.44
2022-08-16T06:50:21.887Z,97575.13
2022-08-16T06:52:59.923Z,97582.84
2022-08-16T06:54:56.600Z,97574.88
2022-08-16T06:57:01.221Z,97582.19
2022-08-16T06:59:05.063Z,97576.84
2022-08-16T07:01:14.966Z,97579.81
2022-08-16T07:03:28.078Z,97584.50
2022-08-16T07:05:41.581Z,97582.16
2022-08-16T07:07:52.210Z,97579.78
2022-08-16T07:09:57.479Z,97585.00
2022-08-16T07:12:05.443Z,97595.13
2022-08-16T07:14:25.067Z,97601.50
2022-08-16T07:16:31.320Z,97600.09
2022-08-16T07:18:35.206Z,97603.31
2022-08-16T07:20:47.903Z,97599.44
2022-08-16T07:22:59.148Z,97612.41
2022-08-16T07:25:13.672Z,97608.66
2022-08-16T07:27:18.530Z,97606.22
2022-08-16T07:29:22.443Z,97606.66
2022-08-16T07:31:25.544Z,97603.78
2022-08-16T07:33:52.820Z,97612.63
2022-08-16T07:36:03.497Z,97609.53
2022-08-16T07:38:09.884Z,97611.09
2022-08-16T07:40:58.120Z,97607.63
2022-08-16T07:42:50.685Z,97597.81
2022-08-16T07:44:55.231Z,97594.16
2022-08-16T07:47:00.746Z,97603.88
2022-08-16T07:49:11.506Z,97603.41
2022-08-16T07:51:15.602Z,97606.31
2022-08-16T07:53:19.052Z,97597.84
2022-08-16T07:55:22.748Z,97602.19
2022-08-16T07:57:26.437Z,97600.97
2022-08-16T07:59:42.966Z,97618.22
2022-08-16T08:01:52.975Z,97611.25
2022-08-16T08:03:57.519Z,97606.03
2022-08-16T08:06:06.919Z,97610.03
2022-08-16T08:08:49.529Z,97599.53
2022-08-16T08:10:37.633Z,97597.94
2022-08-16T08:12:41.970Z,97605.66
2022-08-16T08:14:50.719Z,97608.41
2022-08-16T08:16:54.616Z,97607.75
2022-08-16T08:19:04.203Z,97602.25
2022-08-16T08:21:09.900Z,97602.94
2022-08-16T08:23:14.493Z,97602.38
2022-08-16T08:25:21.345Z,97592.56
2022-08-16T08:27:25.892Z,97594.66
2022-08-16T08:29:37.625Z,97607.56
2022-08-16T08:31:46.359Z,97619.03
2022-08-16T08:33:51.695Z,97618.47
2022-08-16T08:35:57.599Z,97614.88
2022-08-16T08:38:08.366Z,97620.00
2022-08-16T08:40:15.726Z,97621.88
2022-08-16T08:42:26.620Z,97626.09
2022-08-16T08:44:31.820Z,97624.34
2022-08-16T08:46:41.040Z,97616.84
2022-08-16T08:48:59.100Z,97611.34
2022-08-16T08:51:04.745Z,97610.44
2022-08-16T08:53:10.439Z,97606.88
2022-08-16T08:55:18.183Z,97605.78
2022-08-16T08:57:22.926Z,97608.56
2022-08-16T08:59:52.994Z,97608.25
2022-08-16T09:01:58.255Z,97617.06
2022-08-16T09:04:23.772Z,97620.84
2022-08-16T09:06:27.136Z,97613.47
2022-08-16T09:08:31.476Z,97620.47
2022-08-16T09:10:42.704Z,97628.31
2022-08-16T09:12:49.194Z,97622.34
2022-08-16T09:14:57.769Z,97628.84
2022-08-16T09:17:11.574Z,97622.25
2022-08-16T09:19:32.922Z,97630.75
2022-08-16T09:21:38.556Z,97620.47
2022-08-16T09:23:42.643Z,97620.06
2022-08-16T09:25:47.057Z,97626.34
2022-08-16T09:27:57.896Z,97623.19
2022-08-16T09:30:31.583Z,97620.69
2022-08-16T09:32:32.334Z,97612.09
2022-08-16T09:34:35.845Z,97613.19
2022-08-16T09:36:45.177Z,97610.09
2022-08-16T09:38:49.545Z,97603.78
2022-08-16T09:40:56.773Z,97607.06
2022-08-16T09:43:02.011Z,97609.88
2022-08-16T09:45:11.068Z,97615.22
2022-08-16T09:47:23.349Z,97602.94
2022-08-16T09:49:37.146Z,97603.75
2022-08-16T09:51:42.121Z,97601.03
2022-08-16T09:53:47.494Z,97606.84
2022-08-16T09:55:57.713Z,97605.31
2022-08-16T09:58:01.070Z,97601.16
2022-08-16T10:00:44.506Z,97600.94
2022-08-16T10:02:31.127Z,97596.03
2022-08-16T10:04:54.573Z,97584.69
2022-08-16T10:09:11.454Z,97585.47
2022-08-16T10:11:31.949Z,97579.91
2022-08-16T10:13:53.292Z,97577.69
2022-08-16T10:15:59.905Z,97577.38
2022-08-16T10:18:56.729Z,97576.31
2022-08-16T10:20:34.611Z,97579.50
2022-08-16T10:22:39.843Z,97580.75
2022-08-16T10:24:55.967Z,97572.19
2022-08-16T10:27:21.813Z,97571.19
2022-08-16T10:29:26.395Z,97573.91
2022-08-16T10:31:53.569Z,97574.34
2022-08-16T10:33:57.146Z,97577.13
2022-08-16T10:36:03.719Z,97582.31
2022-08-16T10:38:09.608Z,97590.63
2022-08-16T10:40:30.696Z,97584.78
2022-08-16T10:42:34.175Z,97579.66
2022-08-16T10:44:37.515Z,97580.94
2022-08-16T10:46:42.231Z,97585.47
2022-08-16T10:48:47.166Z,97581.50
2022-08-16T10:50:51.196Z,97584.81
2022-08-16T10:52:58.765Z,97579.00
2022-08-16T10:57:32.858Z,97586.56
2022-08-16T10:59:44.068Z,97579.69
2022-08-16T11:05:22.979Z,97586.81
2022-08-16T11:06:37.608Z,97589.97
2022-08-16T11:08:45.393Z,97585.88
2022-08-16T11:11:05.296Z,97592.19
2022-08-16T11:15:36.048Z,97594.28
2022-08-16T11:17:45.061Z,97588.91
2022-08-16T11:22:47.095Z,97594.38
2022-08-16T11:25:11.852Z,97602.59
2022-08-16T11:27:22.979Z,97601.63
2022-08-16T11:29:27.191Z,97595.72
2022-08-16T11:31:32.817Z,97597.53
2022-08-16T11:33:52.695Z,97599.00
2022-08-16T11:38:46.479Z,97590.16
2022-08-16T11:40:52.661Z,97584.88
2022-08-16T11:42:57.803Z,97594.28
2022-08-16T11:45:00.802Z,97595.69
2022-08-16T11:47:05.108Z,97589.13
2022-08-16T11:49:13.209Z,97590.28
2022-08-16T11:51:16.826Z,97593.09
2022-08-16T11:53:21.144Z,97596.13
2022-08-16T11:55:25.104Z,97593.59
2022-08-16T11:57:28.382Z,97593.88
2022-08-16T11:59:33.970Z,97588.78
2022-08-16T12:01:44.546Z,97583.94
2022-08-16T12:03:58.652Z,97587.28
2022-08-16T12:06:08.067Z,97596.69
2022-08-16T12:08:15.561Z,97596.09
2022-08-16T12:10:21.995Z,97593.47
2022-08-16T12:12:25.145Z,97584.97
2022-08-16T12:14:35.311Z,97584.28
2022-08-16T12:16:40.749Z,97581.75
2022-08-16T12:18:51.863Z,97583.25
2022-08-16T12:20:55.147Z,97579.28
2022-08-16T12:22:58.700Z,97571.31
2022-08-16T12:25:01.897Z,97571.56
2022-08-16T12:27:05.331Z,97570.53
2022-08-16T12:29:11.507Z,97573.09
2022-08-16T12:31:16.908Z,97561.03
2022-08-16T12:33:25.673Z,97561.19
2022-08-16T12:35:30.698Z,97563.97
2022-08-16T12:37:35.101Z,97562.59
2022-08-16T12:39:38.214Z,97555.69
2022-08-16T12:41:52.864Z,97556.16
2022-08-16T12:43:57.079Z,97556.25
2022-08-16T12:46:04.283Z,97560.47
2022-08-16T12:48:42.231Z,97544.22
2022-08-16T12:50:49.091Z,97548.56
2022-08-16T12:52:53.447Z,97545.78
2022-08-16T12:54:57.926Z,97539.47
2022-08-16T12:57:01.256Z,97544.13
2022-08-16T12:59:11.506Z,97546.38
2022-08-16T13:01:14.971Z,97539.50
2022-08-16T13:03:21.555Z,97537.59
2022-08-16T13:05:25.670Z,97538.88
2022-08-16T13:07:29.289Z,97538.53
2022-08-16T13:09:51.280Z,97537.13
2022-08-16T13:12:03.697Z,97537.22
2022-08-16T13:14:10.001Z,97531.19
2022-08-16T13:16:34.805Z,97537.03
2022-08-16T13:18:39.343Z,97522.50
2022-08-16T13:20:42.961Z,97520.91
2022-08-16T13:22:48.905Z,97523.56
2022-08-16T13:24:53.625Z,97525.19
2022-08-16T13:26:57.493Z,97516.66
2022-08-16T13:29:00.745Z,97521.00
2022-08-16T13:31:04.416Z,97517.50
2022-08-16T13:33:12.764Z,97521.22
2022-08-16T13:35:19.362Z,97523.47
2022-08-16T13:37:23.400Z,97521.56
2022-08-16T13:39:26.515Z,97518.28
2022-08-16T13:41:30.380Z,97521.78
2022-08-16T13:43:33.729Z,97517.09
2022-08-16T13:45:37.060Z,97515.19
2022-08-16T13:47:52.848Z,97516.72
2022-08-16T13:49:56.368Z,97515.44
2022-08-16T13:52:00.900Z,97514.97
2022-08-16T13:54:05.943Z,97521.50
2022-08-16T13:56:09.309Z,97522.22
2022-08-16T13:58:34.839Z,97516.34
2022-08-16T14:00:36.881Z,97514.84
2022-08-16T14:02:40.119Z,97509.53
2022-08-16T14:04:43.764Z,97516.41
2022-08-16T14:06:46.864Z,97518.97
2022-08-16T14:09:06.182Z,97517.44
2022-08-16T14:11:11.846Z,97513.94
2022-08-16T14:13:20.793Z,97518.00
2022-08-16T14:15:25.421Z,97505.63
2022-08-16T14:17:29.852Z,97504.22
2022-08-16T14:19:44.599Z,97498.25
2022-08-16T14:21:56.668Z,97503.34
2022-08-16T14:24:29.661Z,97494.81
2022-08-16T14:26:33.382Z,97492.91
2022-08-16T14:28:36.688Z,97490.69
2022-08-16T14:30:40.694Z,97496.09
2022-08-16T14:32:46.728Z,97497.00
2022-08-16T14:34:54.986Z,97495.22
2022-08-16T14:36:59.446Z,97489.94
2022-08-16T14:39:02.810Z,97487.56
2022-08-16T14:41:10.419Z,97505.69
2022-08-16T14:43:15.503Z,97493.97
2022-08-16T14:45:21.205Z,97495.94
2022-08-16T14:47:25.225Z,97491.94
2022-08-16T14:49:40.567Z,97490.66
2022-08-16T14:51:46.224Z,97487.97
2022-08-16T14:53:52.000Z,97491.50
2022-08-16T14:55:55.696Z,97489.63
2022-08-16T14:58:00.545Z,97495.81
2022-08-16T15:00:06.112Z,97495.69
2022-08-16T15:02:15.139Z,97491.28
2022-08-16T15:04:39.976Z,97494.69
2022-08-16T15:06:51.308Z,97497.47
2022-08-16T15:08:54.388Z,97494.44
2022-08-16T15:10:57.523Z,97487.41
2022-08-16T15:13:02.111Z,97494.38
2022-08-16T15:15:12.923Z,97499.78
2022-08-16T15:17:20.153Z,97485.75
2022-08-16T15:19:27.365Z,97501.06
2022-08-16T15:21:31.462Z,97495.84
2022-08-16T15:23:34.717Z,97488.97
2022-08-16T15:25:41.226Z,97488.31
2022-08-16T15:27:45.658Z,97492.28
2022-08-16T15:29:59.743Z,97491.31
2022-08-16T15:32:02.869Z,97483.72
2022-08-16T15:34:13.060Z,97491.22
2022-08-16T15:36:22.945Z,97494.97
2022-08-16T15:38:54.801Z,97496.38
2022-08-16T15:40:58.778Z,97493.91
2022-08-16T15:43:02.536Z,97497.66
2022-08-16T15:45:11.496Z,97492.03
2022-08-16T15:47:15.711Z,97488.88
2022-08-16T15:49:18.815Z,97489.72
2022-08-16T15:51:21.914Z,97493.91
2022-08-16T15:53:30.743Z,97488.78
2022-08-16T15:55:35.396Z,97489.59
2022-08-16T15:57:51.715Z,97493.91
2022-08-16T15:59:56.309Z,97491.22
2022-08-16T16:02:18.509Z,97495.56
2022-08-16T16:04:31.335Z,97485.84
2022-08-16T16:06:34.627Z,97486.91
2022-08-16T16:08:39.005Z,97483.41
2022-08-16T16:10:54.384Z,97479.91
2022-08-16T16:12:59.691Z,97472.41
2022-08-16T16:15:03.112Z,97477.44
2022-08-16T16:17:06.547Z,97464.00
2022-08-16T16:19:11.935Z,97472.41
2022-08-16T16:21:20.358Z,97465.38
2022-08-16T16:23:26.734Z,97465.84
2022-08-16T16:25:33.458Z,97468.31
2022-08-16T16:27:36.676Z,97471.00
2022-08-16T16:29:40.287Z,97474.53
2022-08-16T16:31:59.216Z,97472.63
2022-08-16T16:34:03.869Z,97466.69
2022-08-16T16:36:11.043Z,97465.84
2022-08-16T16:38:15.526Z,97464.25
2022-08-16T16:40:31.354Z,97465.28
2022-08-16T16:42:40.373Z,97471.75
2022-08-16T16:44:50.257Z,97463.69
2022-08-16T16:46:56.609Z,97466.94
2022-08-16T16:49:03.122Z,97467.56
2022-08-16T16:51:10.333Z,97466.94
2022-08-16T16:53:17.709Z,97461.81
2022-08-16T16:55:21.509Z,97467.19
2022-08-16T16:57:45.602Z,97468.25
2022-08-16T16:59:50.083Z,97465.56
2022-08-16T17:02:38.608Z,97462.28
2022-08-16T17:04:31.871Z,97470.34
2022-08-16T17:06:38.874Z,97467.09
2022-08-16T17:08:44.586Z,97462.75
2022-08-16T17:10:51.055Z,97463.84
2022-08-16T17:12:56.794Z,97470.81
2022-08-16T17:15:00.068Z,97464.88
2022-08-16T17:17:08.339Z,97463.00
2022-08-16T17:19:17.687Z,97460.06
2022-08-16T17:21:25.913Z,97458.94
2022-08-16T17:23:58.463Z,97461.00
2022-08-16T17:25:53.964Z,97462.31
2022-08-16T17:27:57.122Z,97470.63
2022-08-16T17:30:02.848Z,97473.78
2022-08-16T17:32:46.751Z,97471.56
2022-08-16T17:34:45.470Z,97470.41
2022-08-16T17:36:53.308Z,97470.03
2022-08-16T17:39:00.051Z,97480.44
2022-08-16T17:41:03.279Z,97472.84
2022-08-16T17:43:09.225Z,97476.81
2022-08-16T17:45:12.347Z,97469.22
2022-08-16T17:47:15.485Z,97474.25
2022-08-16T17:49:18.761Z,97470.41
2022-08-16T17:51:21.912Z,97479.50
2022-08-16T17:53:25.410Z,97486.19
2022-08-16T17:55:32.274Z,97473.69
2022-08-16T17:57:35.621Z,97470.63
2022-08-16T17:59:41.114Z,97469.47
2022-08-16T18:01:44.964Z,97470.97
2022-08-16T18:04:08.028Z,97467.72
2022-08-16T18:06:14.007Z,97468.66
2022-08-16T18:08:17.364Z,97472.25
2022-08-16T18:10:32.917Z,97468.59
2022-08-16T18:12:50.788Z,97470.34
2022-08-16T18:15:00.207Z,97465.91
2022-08-16T18:17:03.568Z,97473.81
2022-08-16T18:19:06.690Z,97474.78
2022-08-16T18:21:27.204Z,97474.06
2022-08-16T18:23:30.375Z,97474.38
2022-08-16T18:25:33.398Z,97473.66
2022-08-16T18:27:38.609Z,97470.25
2022-08-16T18:29:41.804Z,97467.84
2022-08-16T18:31:45.086Z,97467.16
2022-08-16T18:33:49.398Z,97471.56
2022-08-16T18:35:58.090Z,97478.41
2022-08-16T18:38:01.186Z,97475.81
2022-08-16T18:40:04.816Z,97477.75
2022-08-16T18:42:11.469Z,97480.53
2022-08-16T18:44:26.773Z,97480.03
2022-08-16T18:46:31.736Z,97478.91
2022-08-16T18:48:34.867Z,97486.19
2022-08-16T18:50:59.945Z,97481.94
2022-08-16T18:53:05.542Z,97482.84
2022-08-16T18:55:14.480Z,97477.56
2022-08-16T18:57:18.012Z,97485.47
2022-08-16T18:59:22.466Z,97489.84
2022-08-16T19:01:25.612Z,97497.72
2022-08-16T19:03:30.696Z,97495.31
2022-08-16T19:05:36.486Z,97494.56
2022-08-16T19:07:39.780Z,97496.00
2022-08-16T19:09:42.967Z,97505.34
2022-08-16T19:11:46.407Z,97506.47
2022-08-16T19:13:49.654Z,97502.19
2022-08-16T19:15:56.001Z,97508.19
2022-08-16T19:17:59.170Z,97499.00
2022-08-16T19:20:04.856Z,97506.63
2022-08-16T19:22:11.557Z,97512.44
2022-08-16T19:24:17.797Z,97506.88
2022-08-16T19:26:24.950Z,97512.88
2022-08-16T19:28:50.683Z,97516.66
2022-08-16T19:30:56.180Z,97521.22
2022-08-16T19:32:59.361Z,97516.94
2022-08-16T19:35:02.539Z,97523.13
2022-08-16T19:37:06.213Z,97518.06
2022-08-16T19:39:11.250Z,97515.22
2022-08-16T19:41:14.573Z,97522.66
2022-08-16T19:43:18.002Z,97522.69
2022-08-16T19:45:21.786Z,97521.31
2022-08-16T19:47:26.757Z,97518.63
2022-08-16T19:49:29.928Z,97525.84
2022-08-16T19:51:33.333Z,97520.53
2022-08-16T19:53:36.587Z,97524.25
2022-08-16T19:55:41.805Z,97526.94
2022-08-16T19:57:46.813Z,97531.47
2022-08-16T19:59:50.421Z,97526.97
2022-08-16T20:01:53.701Z,97517.53
2022-08-16T20:03:58.214Z,97522.69
2022-08-16T20:06:01.385Z,97517.16
2022-08-16T20:08:06.062Z,97518.97
2022-08-16T20:10:10.403Z,97523.31
2022-08-16T20:12:16.222Z,97522.09
2022-08-16T20:14:25.222Z,97521.06
2022-08-16T20:16:29.456Z,97529.69
2022-08-16T20:18:33.052Z,97522.94
2022-08-16T20:20:38.447Z,97532.56
2022-08-16T20:22:53.435Z,97522.91
2022-08-16T20:24:58.102Z,97528.06
2022-08-16T20:27:01.498Z,97522.94
2022-08-16T20:29:05.271Z,97529.47
2022-08-16T20:31:08.355Z,97524.75
2022-08-16T20:33:13.353Z,97527.84
2022-08-16T20:35:19.234Z,97522.09
2022-08-16T20:37:23.715Z,97525.16
2022-08-16T20:39:26.840Z,97536.41
2022-08-16T20:41:30.064Z,97531.03
2022-08-16T20:43:33.128Z,97534.75
2022-08-16T20:45:36.840Z,97527.56
2022-08-16T20:47:39.920Z,97533.69
2022-08-16T20:49:44.809Z,97537.56
2022-08-16T20:51:50.543Z,97530.78
2022-08-16T20:53:56.699Z,97531.16
2022-08-16T20:56:02.657Z,97522.72
2022-08-16T20:58:05.762Z,97532.16
2022-08-16T21:00:10.983Z,97537.88
2022-08-16T21:02:24.847Z,97532.91
2022-08-16T21:04:29.830Z,97536.38
2022-08-16T21:06:32.917Z,97527.31
2022-08-16T21:08:52.469Z,97535.28
2022-08-16T21:10:59.080Z,97536.50
2022-08-16T21:13:03.025Z,97536.06
2022-08-16T21:15:07.678Z,97532.81
2022-08-16T21:17:13.042Z,97542.81
2022-08-16T21:19:16.136Z,97538.06
2022-08-16T21:21:19.307Z,97540.31
2022-08-16T21:23:25.909Z,97533.72
2022-08-16T21:25:29.503Z,97538.81
2022-08-16T21:27:34.783Z,97542.06
2022-08-16T21:29:47.052Z,97542.84
2022-08-16T21:31:50.102Z,97548.75
2022-08-16T21:33:55.265Z,97539.72
2022-08-16T21:35:58.881Z,97541.13
2022-08-16T21:38:29.553Z,97546.00
2022-08-16T21:40:25.401Z,97546.75
2022-08-16T21:42:31.904Z,97538.53
2022-08-16T21:44:39.278Z,97547.91
2022-08-16T21:46:42.490Z,97541.13
2022-08-16T21:48:45.504Z,97540.91
2022-08-16T21:50:48.694Z,97547.41
2022-08-16T21:52:51.776Z,97540.63
2022-08-16T21:54:56.644Z,97543.28
2022-08-16T21:56:59.832Z,97544.53
2022-08-16T21:59:06.984Z,97545.09
2022-08-16T22:01:11.455Z,97550.59
2022-08-16T22:03:16.106Z,97552.66
2022-08-16T22:05:19.145Z,97551.38
2022-08-16T22:07:22.192Z,97553.13
2022-08-16T22:09:26.487Z,97555.75
2022-08-16T22:11:29.608Z,97554.09
2022-08-16T22:15:35.655Z,97556.50
2022-08-16T22:17:40.466Z,97554.41
2022-08-16T22:19:46.243Z,97549.91
2022-08-16T22:21:49.384Z,97568.69
2022-08-16T22:23:56.942Z,97563.78
2022-08-16T22:26:01.323Z,97566.78
2022-08-16T22:28:05.035Z,97564.03
2022-08-16T22:30:09.171Z,97571.41
2022-08-16T22:32:12.241Z,97565.66
2022-08-16T22:34:16.988Z,97566.47
2022-08-16T22:36:19.979Z,97565.84
2022-08-16T22:38:53.824Z,97565.84
2022-08-16T22:40:47.498Z,97578.28
2022-08-16T22:42:52.380Z,97573.72
2022-08-16T22:44:55.424Z,97569.16
2022-08-16T22:46:58.483Z,97570.53
2022-08-16T22:49:01.805Z,97569.63
2022-08-16T22:51:06.255Z,97571.84
2022-08-16T22:53:10.496Z,97581.38
2022-08-16T22:55:13.907Z,97578.91
2022-08-16T22:57:16.883Z,97578.09
2022-08-16T22:59:19.970Z,97575.63
2022-08-16T23:01:25.358Z,97573.97
2022-08-16T23:03:28.475Z,97577.19
2022-08-16T23:05:33.915Z,97575.53
2022-08-16T23:07:38.422Z,97570.59
2022-08-16T23:09:41.536Z,97564.81
2022-08-16T23:11:44.859Z,97568.69
2022-08-16T23:13:53.066Z,97564.75
2022-08-16T23:16:00.737Z,97563.47
2022-08-16T23:18:05.365Z,97565.63
2022-08-16T23:20:09.663Z,97566.00
2022-08-16T23:22:12.822Z,97561.25
2022-08-16T23:24:19.328Z,97556.50
2022-08-16T23:26:44.396Z,97558.06
2022-08-16T23:28:45.806Z,97552.47
2022-08-16T23:31:03.639Z,97552.00
2022-08-16T23:33:11.828Z,97548.06
2022-08-16T23:35:29.546Z,97541.69
2022-08-16T23:38:09.623Z,97534.28
2022-08-16T23:40:43.531Z,97539.13
2022-08-16T23:43:05.244Z,97538.00
2022-08-16T23:45:09.402Z,97535.53
2022-08-16T23:47:12.444Z,97535.09
2022-08-16T23:50:01.364Z,97538.09
2022-08-16T23:51:38.996Z,97531.69
2022-08-16T23:53:44.089Z,97536.53
2022-08-16T23:55:51.606Z,97534.25
2022-08-16T23:57:55.431Z,97536.06
2022-08-16T23:59:58.899Z,97535.25
